Time;durP1;ratioP1;P1;durP2;ratioP2;P2;SDS_P1;SDS_P2;PMS_P1;PMS_P2;Temp;Humidity;BMP_temperature;BMP_pressure;BME280_temperature;BME280_humidity;BME280_pressure;Samples;Min_cycle;Max_cycle;Signal;HPM_P1;HPM_P2
2023/04/03 00:01:29;;;;;;;29.88;17.08;;;27.50;99.90;;;;;;5033120;28;20417;-70
2023/04/03 00:03:56;;;;;;;28.20;16.65;;;27.30;99.90;;;;;;5033146;28;20472;-70
2023/04/03 00:06:24;;;;;;;26.88;15.70;;;27.20;99.90;;;;;;5033229;28;20025;-71
2023/04/03 00:08:51;;;;;;;24.80;15.20;;;27.10;99.90;;;;;;5033005;28;20036;-69
2023/04/03 00:11:18;;;;;;;21.05;13.43;;;27.10;99.90;;;;;;5033314;28;20039;-71
2023/04/03 00:13:44;;;;;;;24.38;13.13;;;27.20;99.90;;;;;;5033207;28;20076;-73
2023/04/03 00:16:11;;;;;;;23.90;14.10;;;27.20;99.90;;;;;;5032999;28;20050;-70
2023/04/03 00:18:39;;;;;;;19.75;13.13;;;27.30;99.90;;;;;;5033116;28;20285;-70
2023/04/03 00:21:07;;;;;;;19.83;12.93;;;27.40;99.90;;;;;;5033133;28;20033;-70
2023/04/03 00:23:34;;;;;;;25.50;16.05;;;27.50;99.90;;;;;;5032990;28;20026;-72
2023/04/03 00:26:00;;;;;;;27.83;18.42;;;27.30;99.90;;;;;;5015258;28;20049;-73
2023/04/03 00:28:27;;;;;;;25.15;17.25;;;27.40;99.90;;;;;;5034882;28;20491;-72
2023/04/03 00:30:54;;;;;;;26.80;17.27;;;27.50;99.90;;;;;;5036000;28;20368;-73
2023/04/03 00:33:21;;;;;;;26.17;15.32;;;27.60;99.90;;;;;;5023630;28;20053;-73
2023/04/03 00:35:48;;;;;;;19.80;14.25;;;27.60;99.90;;;;;;5026045;28;20025;-73
2023/04/03 00:38:15;;;;;;;23.70;15.90;;;27.60;99.90;;;;;;5019439;28;20108;-71
2023/04/03 00:40:45;;;;;;;36.95;23.70;;;27.70;99.90;;;;;;5016925;28;20033;-72
2023/04/03 00:43:17;;;;;;;28.27;19.83;;;27.70;99.90;;;;;;5032489;28;20052;-72
2023/04/03 00:45:48;;;;;;;22.20;12.63;;;27.70;99.90;;;;;;5036618;28;20032;-71
2023/04/03 00:48:21;;;;;;;20.10;10.25;;;27.60;99.90;;;;;;5036529;28;20045;-72
2023/04/03 00:50:49;;;;;;;18.17;10.75;;;27.50;99.90;;;;;;5036479;28;20492;-71
2023/04/03 00:53:23;;;;;;;18.77;10.52;;;27.30;99.90;;;;;;5034886;28;20079;-74
2023/04/03 00:55:50;;;;;;;16.00;9.68;;;27.30;99.90;;;;;;5027431;28;20033;-72
2023/04/03 00:58:22;;;;;;;11.55;8.18;;;27.30;99.90;;;;;;5036354;28;20024;-71
2023/04/03 01:00:57;;;;;;;19.63;12.02;;;27.30;99.90;;;;;;5036460;28;20360;-71
2023/04/03 01:03:24;;;;;;;22.42;16.13;;;27.30;99.90;;;;;;5036416;28;20026;-72
2023/04/03 01:05:51;;;;;;;21.48;14.15;;;27.50;99.90;;;;;;5036283;28;20052;-70
2023/04/03 01:08:18;;;;;;;21.25;13.90;;;27.60;99.90;;;;;;5035552;28;20017;-68
2023/04/03 01:10:44;;;;;;;24.73;16.33;;;27.60;99.90;;;;;;5036191;28;20341;-69
2023/04/03 01:13:26;;;;;;;24.80;16.30;;;27.60;99.90;;;;;;5034085;28;20025;-69
2023/04/03 01:15:53;;;;;;;25.80;19.23;;;27.70;99.90;;;;;;5039824;28;20044;-69
2023/04/03 01:18:21;;;;;;;26.40;19.48;;;27.70;99.90;;;;;;5041034;28;20026;-70
2023/04/03 01:20:50;;;;;;;29.35;18.40;;;27.90;99.90;;;;;;5044524;28;20041;-71
2023/04/03 01:23:37;;;;;;;28.30;16.75;;;28.00;99.90;;;;;;5045641;28;20096;-70
2023/04/03 01:26:04;;;;;;;30.17;17.05;;;28.00;99.90;;;;;;5030422;28;20030;-71
2023/04/03 01:28:35;;;;;;;29.48;17.00;;;27.90;99.90;;;;;;5044209;28;20120;-75
2023/04/03 01:31:15;;;;;;;36.90;21.40;;;28.10;99.90;;;;;;5037574;28;20014;-72
2023/04/03 01:33:42;;;;;;;28.20;17.58;;;28.00;99.90;;;;;;5041512;28;20021;-73
2023/04/03 01:36:13;;;;;;;37.28;21.70;;;28.00;99.90;;;;;;5044568;28;20030;-71
2023/04/03 01:38:39;;;;;;;42.30;27.10;;;28.10;99.90;;;;;;5043124;28;20053;-70
2023/04/03 01:41:06;;;;;;;866.58;567.55;;;28.00;99.90;;;;;;5045312;28;20032;-77
2023/04/03 01:43:32;;;;;;;506.35;336.23;;;28.00;99.90;;;;;;5039856;28;20020;-74
2023/04/03 01:45:59;;;;;;;1460.18;767.13;;;28.10;99.90;;;;;;5043124;28;20009;-74
2023/04/03 01:48:25;;;;;;;878.45;559.95;;;28.10;99.90;;;;;;5043566;28;20098;-75
2023/04/03 01:50:52;;;;;;;181.30;113.53;;;28.20;99.90;;;;;;5043489;28;20056;-74
2023/04/03 01:53:18;;;;;;;88.88;63.15;;;28.10;99.90;;;;;;5037103;28;20071;-72
2023/04/03 01:55:45;;;;;;;46.90;31.80;;;28.10;99.90;;;;;;5040893;28;20018;-72
2023/04/03 01:58:11;;;;;;;406.58;311.23;;;28.10;99.90;;;;;;5043332;28;20013;-73
2023/04/03 02:00:38;;;;;;;149.95;104.07;;;28.10;99.90;;;;;;5045053;28;20077;-72
2023/04/03 02:03:05;;;;;;;116.25;58.33;;;28.00;99.90;;;;;;5043246;28;20136;-72
2023/04/03 02:05:31;;;;;;;89.05;42.05;;;28.00;99.90;;;;;;5040515;28;20075;-74
2023/04/03 02:07:58;;;;;;;59.50;26.25;;;28.00;99.90;;;;;;5039496;28;20032;-74
2023/04/03 02:10:24;;;;;;;34.67;19.58;;;28.10;99.90;;;;;;5044201;28;20024;-74
2023/04/03 02:12:51;;;;;;;350.08;170.13;;;28.10;99.90;;;;;;5044111;28;20468;-73
2023/04/03 02:15:18;;;;;;;651.10;379.98;;;28.10;99.90;;;;;;5042594;28;20029;-71
2023/04/03 02:17:44;;;;;;;552.65;322.08;;;28.10;99.90;;;;;;5041779;28;20029;-72
2023/04/03 02:20:11;;;;;;;176.00;91.03;;;28.20;99.90;;;;;;5039498;28;20467;-73
2023/04/03 02:22:38;;;;;;;64.50;36.03;;;28.30;99.90;;;;;;5034744;28;20363;-72
2023/04/03 02:25:05;;;;;;;19.73;11.57;;;28.20;99.90;;;;;;5034923;28;20026;-75
2023/04/03 02:27:31;;;;;;;19.27;11.50;;;28.20;99.90;;;;;;5034898;28;20460;-73
2023/04/03 02:29:58;;;;;;;47.50;25.40;;;28.20;99.90;;;;;;5034711;28;20071;-70
2023/04/03 02:32:24;;;;;;;56.88;30.10;;;28.20;99.90;;;;;;5034777;28;20018;-70
2023/04/03 02:34:51;;;;;;;47.47;21.45;;;28.20;99.90;;;;;;5034629;28;20028;-74
2023/04/03 02:37:17;;;;;;;24.23;11.85;;;28.20;99.90;;;;;;5034526;28;20490;-73
2023/04/03 02:39:44;;;;;;;18.65;9.15;;;28.30;99.90;;;;;;5016757;28;20116;-73
2023/04/03 02:42:11;;;;;;;28.33;12.38;;;28.30;99.90;;;;;;5034530;28;20021;-72
2023/04/03 02:44:38;;;;;;;21.58;10.82;;;28.30;99.90;;;;;;5034288;28;20125;-73
2023/04/03 02:47:05;;;;;;;16.75;10.40;;;28.40;99.90;;;;;;5016551;28;20426;-74
2023/04/03 02:49:32;;;;;;;46.67;21.75;;;28.40;99.90;;;;;;5033143;28;20099;-75
2023/04/03 02:51:58;;;;;;;18.10;10.70;;;28.40;99.90;;;;;;5034171;28;20025;-74
2023/04/03 02:54:28;;;;;;;21.83;9.98;;;28.30;99.90;;;;;;5033669;28;20018;-76
2023/04/03 02:56:54;;;;;;;25.40;12.10;;;28.40;99.90;;;;;;5049520;28;20037;-74
2023/04/03 02:59:21;;;;;;;22.55;11.23;;;28.30;99.90;;;;;;5052386;28;20419;-75
2023/04/03 03:01:48;;;;;;;39.42;16.08;;;28.40;99.90;;;;;;5054172;28;20017;-75
2023/04/03 03:04:14;;;;;;;20.73;13.23;;;28.40;99.90;;;;;;5054127;28;20101;-75
2023/04/03 03:06:41;;;;;;;79.10;33.63;;;28.50;99.90;;;;;;5053951;28;20017;-72
2023/04/03 03:09:08;;;;;;;45.65;20.00;;;28.50;99.90;;;;;;5053846;28;20100;-73
2023/04/03 03:11:34;;;;;;;48.60;19.40;;;28.50;99.90;;;;;;5054017;28;20025;-73
2023/04/03 03:14:01;;;;;;;21.95;11.38;;;28.50;99.90;;;;;;5052761;28;20025;-73
2023/04/03 03:16:27;;;;;;;15.68;9.30;;;28.50;99.90;;;;;;5053701;28;20476;-72
2023/04/03 03:18:54;;;;;;;27.98;14.18;;;28.50;99.90;;;;;;5041429;28;20035;-72
2023/04/03 03:21:21;;;;;;;103.45;67.45;;;28.50;99.90;;;;;;5033596;28;20026;-71
2023/04/03 03:23:48;;;;;;;60.70;38.80;;;28.60;99.90;;;;;;5033167;28;20079;-73
2023/04/03 03:26:14;;;;;;;51.40;38.28;;;28.60;99.90;;;;;;5033860;28;20357;-72
2023/04/03 03:28:41;;;;;;;32.28;13.18;;;28.70;99.90;;;;;;5033641;28;20071;-71
2023/04/03 03:31:09;;;;;;;19.50;11.52;;;28.60;99.90;;;;;;5027489;28;20066;-74
2023/04/03 03:33:37;;;;;;;23.42;14.57;;;28.50;99.90;;;;;;5021099;28;20030;-73
2023/04/03 03:36:04;;;;;;;36.00;21.15;;;28.50;99.90;;;;;;5041242;28;20164;-71
2023/04/03 03:38:31;;;;;;;16.92;10.18;;;28.50;99.90;;;;;;5041953;28;20020;-70
2023/04/03 03:40:57;;;;;;;15.93;8.88;;;28.50;99.90;;;;;;5043111;28;20029;-70
2023/04/03 03:43:24;;;;;;;59.13;33.85;;;28.60;99.90;;;;;;5041164;28;20057;-68
2023/04/03 03:45:52;;;;;;;156.90;85.93;;;28.60;99.90;;;;;;5041746;28;20032;-69
2023/04/03 03:48:20;;;;;;;115.75;62.67;;;28.60;99.90;;;;;;5042596;28;20063;-69
2023/04/03 03:50:47;;;;;;;77.25;43.90;;;28.70;99.90;;;;;;5040083;28;20030;-68
2023/04/03 03:53:14;;;;;;;57.78;30.65;;;28.70;99.90;;;;;;5041464;28;20040;-68
2023/04/03 03:55:41;;;;;;;56.78;29.60;;;28.60;99.90;;;;;;5042738;28;20075;-68
2023/04/03 03:58:08;;;;;;;49.80;26.13;;;28.60;99.90;;;;;;5040128;28;20017;-68
2023/04/03 04:00:35;;;;;;;50.20;22.10;;;28.50;99.90;;;;;;5041183;28;20052;-68
2023/04/03 04:03:01;;;;;;;27.08;14.88;;;28.50;99.90;;;;;;5039572;28;20039;-69
2023/04/03 04:05:28;;;;;;;24.70;14.45;;;28.60;99.90;;;;;;5041368;28;20010;-69
2023/04/03 04:07:54;;;;;;;25.10;13.20;;;28.50;99.90;;;;;;5041205;28;20044;-68
2023/04/03 04:10:21;;;;;;;23.95;14.80;;;28.50;99.90;;;;;;5042806;28;20016;-69
2023/04/03 04:12:49;;;;;;;16.35;10.35;;;28.50;99.90;;;;;;5041362;28;20642;-68
2023/04/03 04:15:15;;;;;;;15.75;9.32;;;28.50;99.90;;;;;;5041223;28;20087;-69
2023/04/03 04:17:42;;;;;;;13.65;8.40;;;28.50;99.90;;;;;;5042713;28;20468;-69
2023/04/03 04:20:09;;;;;;;18.13;7.93;;;28.50;99.90;;;;;;5041255;28;20036;-74
2023/04/03 04:22:35;;;;;;;16.58;8.52;;;28.60;99.90;;;;;;5040873;28;20127;-71
2023/04/03 04:25:02;;;;;;;19.27;9.82;;;28.60;99.90;;;;;;5042639;28;20013;-70
2023/04/03 04:27:28;;;;;;;39.42;19.30;;;28.60;99.90;;;;;;5041330;28;20018;-71
2023/04/03 04:29:55;;;;;;;25.90;14.80;;;28.70;99.90;;;;;;5040840;28;20028;-73
2023/04/03 04:32:21;;;;;;;24.80;12.65;;;28.60;99.90;;;;;;5040147;28;20387;-70
2023/04/03 04:34:50;;;;;;;31.05;15.07;;;28.70;99.90;;;;;;5041971;28;20484;-71
2023/04/03 04:37:17;;;;;;;40.85;21.00;;;28.80;99.90;;;;;;5022682;28;20033;-71
2023/04/03 04:39:43;;;;;;;16.85;10.65;;;28.80;99.90;;;;;;5036720;28;20025;-70
2023/04/03 04:42:12;;;;;;;23.80;10.35;;;28.70;99.90;;;;;;5036443;28;20375;-70
2023/04/03 04:44:43;;;;;;;17.70;11.30;;;28.70;99.90;;;;;;5042608;28;20021;-70
2023/04/03 04:47:10;;;;;;;17.95;9.90;;;28.70;99.90;;;;;;5037572;28;20020;-71
2023/04/03 04:49:36;;;;;;;14.75;9.68;;;28.60;99.90;;;;;;5041153;28;20037;-71
2023/04/03 04:52:03;;;;;;;14.15;9.88;;;28.70;99.90;;;;;;5040275;28;20031;-74
2023/04/03 04:54:29;;;;;;;15.45;8.70;;;28.70;99.90;;;;;;5041788;28;20025;-75
2023/04/03 04:56:56;;;;;;;14.13;10.05;;;28.70;99.90;;;;;;5042253;28;20060;-73
2023/04/03 04:59:22;;;;;;;21.02;15.48;;;28.60;99.90;;;;;;5040197;28;20057;-72
2023/04/03 05:01:49;;;;;;;17.25;12.07;;;28.70;99.90;;;;;;5038080;28;20048;-75
2023/04/03 05:04:16;;;;;;;34.13;23.98;;;28.70;99.90;;;;;;5039680;28;20499;-75
2023/04/03 05:06:43;;;;;;;19.77;11.90;;;28.70;99.90;;;;;;5037761;28;20033;-75
2023/04/03 05:09:09;;;;;;;20.00;12.23;;;28.70;99.90;;;;;;5034281;28;20108;-77
2023/04/03 05:11:36;;;;;;;15.65;12.13;;;28.60;99.90;;;;;;5036191;28;20014;-75
2023/04/03 05:14:06;;;;;;;25.58;19.77;;;28.60;99.90;;;;;;5036574;28;20471;-74
2023/04/03 05:16:33;;;;;;;40.67;30.35;;;28.70;99.90;;;;;;5033969;28;20053;-79
2023/04/03 05:18:59;;;;;;;16.05;12.18;;;28.80;99.90;;;;;;5037731;28;20021;-79
2023/04/03 05:21:29;;;;;;;15.07;9.85;;;28.80;99.90;;;;;;5040723;28;20100;-76
2023/04/03 05:23:55;;;;;;;24.83;14.95;;;28.80;99.90;;;;;;5045474;28;20117;-73
2023/04/03 05:26:22;;;;;;;20.10;10.52;;;28.80;99.90;;;;;;5046692;28;20013;-72
2023/04/03 05:28:48;;;;;;;13.07;8.18;;;28.80;99.90;;;;;;5040716;28;20040;-73
2023/04/03 05:31:15;;;;;;;17.63;8.57;;;28.80;99.90;;;;;;5040929;28;20030;-72
2023/04/03 05:33:41;;;;;;;10.52;6.97;;;28.80;99.90;;;;;;5044604;28;20489;-68
2023/04/03 05:36:08;;;;;;;7.65;6.07;;;28.80;99.90;;;;;;5041040;28;20020;-66
2023/04/03 05:38:38;;;;;;;9.00;6.38;;;28.70;99.90;;;;;;5046057;28;20113;-69
2023/04/03 05:41:05;;;;;;;11.65;6.45;;;28.70;99.90;;;;;;5044367;28;20022;-69
2023/04/03 05:43:32;;;;;;;10.38;7.35;;;28.70;99.90;;;;;;5043717;28;20075;-66
2023/04/03 05:45:59;;;;;;;13.75;7.90;;;28.80;99.90;;;;;;5045026;28;20026;-67
2023/04/03 05:48:26;;;;;;;12.45;7.50;;;28.80;99.90;;;;;;5044844;28;20041;-67
2023/04/03 05:50:52;;;;;;;7.55;6.25;;;28.80;99.90;;;;;;5046071;28;20561;-68
2023/04/03 05:53:25;;;;;;;9.73;7.03;;;28.80;99.90;;;;;;5045260;28;20471;-66
2023/04/03 05:55:51;;;;;;;12.07;7.07;;;28.80;99.90;;;;;;5042693;28;20429;-68
2023/04/03 05:58:18;;;;;;;11.88;7.57;;;28.80;99.90;;;;;;5044540;28;20276;-69
2023/04/03 06:00:45;;;;;;;14.93;7.57;;;28.80;99.90;;;;;;5045008;28;20036;-68
2023/04/03 06:03:11;;;;;;;8.82;6.68;;;28.80;99.90;;;;;;5045860;28;20022;-66
2023/04/03 06:05:38;;;;;;;9.35;6.85;;;28.90;99.90;;;;;;5041573;28;20022;-68
2023/04/03 06:08:05;;;;;;;13.68;9.05;;;29.00;99.90;;;;;;5045314;28;20104;-68
2023/04/03 06:10:32;;;;;;;10.70;8.52;;;29.00;99.90;;;;;;5046001;28;20051;-67
2023/04/03 06:12:58;;;;;;;14.93;10.48;;;29.10;99.90;;;;;;5041840;28;20546;-69
2023/04/03 06:15:25;;;;;;;10.95;9.70;;;29.10;99.90;;;;;;5043976;28;20021;-66
2023/04/03 06:17:51;;;;;;;9.93;7.60;;;29.00;99.90;;;;;;5045732;28;20479;-68
2023/04/03 06:20:18;;;;;;;16.80;10.15;;;29.00;99.90;;;;;;5035858;28;20025;-69
2023/04/03 06:22:44;;;;;;;13.98;10.88;;;29.00;99.90;;;;;;5044055;28;20021;-68
2023/04/03 06:25:12;;;;;;;15.52;8.00;;;29.00;99.90;;;;;;5045284;28;20122;-74
2023/04/03 06:27:38;;;;;;;8.60;6.93;;;29.00;99.90;;;;;;5043626;28;20496;-72
2023/04/03 06:30:07;;;;;;;10.45;8.75;;;29.00;99.90;;;;;;5051697;28;20061;-73
2023/04/03 06:32:33;;;;;;;27.20;22.27;;;29.00;99.90;;;;;;5048310;28;20391;-70
2023/04/03 06:35:00;;;;;;;56.67;32.33;;;29.00;99.90;;;;;;5043454;28;20022;-68
2023/04/03 06:37:28;;;;;;;27.13;14.35;;;29.00;99.90;;;;;;5043506;28;20462;-71
2023/04/03 06:39:55;;;;;;;37.80;22.70;;;29.00;99.90;;;;;;5044256;28;20071;-70
2023/04/03 06:42:22;;;;;;;15.95;11.23;;;29.10;99.90;;;;;;5043492;28;20025;-68
2023/04/03 06:44:49;;;;;;;16.70;12.80;;;29.10;99.90;;;;;;5042010;28;20041;-69
2023/04/03 06:47:17;;;;;;;26.35;17.85;;;29.10;99.90;;;;;;5043366;28;20022;-69
2023/04/03 06:49:44;;;;;;;52.88;28.52;;;29.10;99.90;;;;;;5043758;28;20128;-71
2023/04/03 06:52:11;;;;;;;28.98;13.18;;;29.10;99.90;;;;;;5042738;28;20155;-71
2023/04/03 06:54:39;;;;;;;20.77;15.55;;;29.20;99.90;;;;;;5035136;28;20584;-70
2023/04/03 06:57:06;;;;;;;18.38;12.35;;;29.30;99.90;;;;;;5035949;28;20049;-71
2023/04/03 06:59:33;;;;;;;49.85;31.95;;;29.30;99.90;;;;;;5044937;28;20091;-67
2023/04/03 07:01:59;;;;;;;81.22;49.45;;;29.30;99.90;;;;;;5043698;28;20108;-66
2023/04/03 07:04:26;;;;;;;59.53;41.50;;;29.30;99.90;;;;;;5038435;28;20014;-68
2023/04/03 07:06:53;;;;;;;47.72;33.85;;;29.30;99.90;;;;;;5040124;28;20032;-68
2023/04/03 07:09:20;;;;;;;15.55;11.05;;;29.30;99.90;;;;;;5040531;28;20048;-68
2023/04/03 07:11:47;;;;;;;20.13;14.02;;;29.30;99.90;;;;;;5037971;28;20026;-68
2023/04/03 07:14:13;;;;;;;30.02;18.08;;;29.40;99.90;;;;;;5044874;28;20047;-70
2023/04/03 07:16:40;;;;;;;17.85;10.40;;;29.40;99.90;;;;;;5041227;28;20033;-70
2023/04/03 07:19:08;;;;;;;14.07;10.05;;;29.40;99.90;;;;;;5045920;28;20487;-70
2023/04/03 07:21:35;;;;;;;14.18;9.45;;;29.40;99.90;;;;;;5050604;28;20479;-69
2023/04/03 07:24:01;;;;;;;16.27;11.52;;;29.50;99.90;;;;;;5040735;28;20029;-70
2023/04/03 07:26:28;;;;;;;11.90;8.15;;;29.50;99.90;;;;;;5036444;28;20635;-70
2023/04/03 07:28:55;;;;;;;14.52;6.75;;;29.40;99.90;;;;;;5048702;28;20024;-71
2023/04/03 07:31:21;;;;;;;19.13;14.30;;;29.40;99.90;;;;;;5049080;28;20468;-71
2023/04/03 07:33:48;;;;;;;20.67;11.10;;;29.40;99.90;;;;;;5041908;28;20029;-76
2023/04/03 07:36:19;;;;;;;17.20;11.85;;;29.40;99.90;;;;;;5041190;28;20021;-74
2023/04/03 07:38:45;;;;;;;18.02;10.60;;;29.50;99.90;;;;;;5043066;28;20032;-70
2023/04/03 07:41:17;;;;;;;15.30;9.63;;;29.50;99.90;;;;;;5041753;28;20021;-68
2023/04/03 07:43:46;;;;;;;14.65;9.88;;;29.40;99.90;;;;;;5040254;28;20101;-67
2023/04/03 07:46:13;;;;;;;19.17;11.43;;;29.40;99.90;;;;;;5041555;28;20102;-68
2023/04/03 07:48:40;;;;;;;21.85;12.82;;;29.40;99.90;;;;;;5039819;28;20045;-67
2023/04/03 07:51:06;;;;;;;21.20;13.68;;;29.40;99.90;;;;;;5042348;28;20094;-67
2023/04/03 07:53:33;;;;;;;28.00;16.25;;;29.40;99.90;;;;;;5041332;28;20025;-71
2023/04/03 07:56:02;;;;;;;17.77;11.02;;;29.50;99.90;;;;;;5043767;28;20021;-69
2023/04/03 07:58:29;;;;;;;13.70;9.55;;;29.50;99.90;;;;;;5043257;28;20038;-69
2023/04/03 08:00:57;;;;;;;10.55;8.38;;;29.50;99.90;;;;;;5041482;28;20109;-69
2023/04/03 08:03:24;;;;;;;25.95;14.35;;;29.50;99.90;;;;;;5035483;28;20036;-69
2023/04/03 08:05:51;;;;;;;18.00;12.25;;;29.60;99.90;;;;;;5034102;28;20030;-69
2023/04/03 08:08:21;;;;;;;16.95;10.50;;;29.60;99.90;;;;;;5033948;28;20104;-69
2023/04/03 08:10:52;;;;;;;12.45;8.73;;;29.60;99.90;;;;;;5033750;28;20048;-69
2023/04/03 08:13:19;;;;;;;13.25;9.07;;;29.60;99.90;;;;;;5033913;28;20040;-69
2023/04/03 08:15:46;;;;;;;15.05;9.50;;;29.50;99.90;;;;;;5032337;28;20033;-69
2023/04/03 08:18:14;;;;;;;13.60;8.80;;;29.60;99.90;;;;;;5036094;28;20032;-66
2023/04/03 08:20:41;;;;;;;14.13;9.18;;;29.60;99.90;;;;;;5034069;28;20033;-66
2023/04/03 08:23:08;;;;;;;18.05;9.88;;;29.50;99.90;;;;;;5033044;28;20026;-66
2023/04/03 08:25:39;;;;;;;13.48;9.40;;;29.50;99.90;;;;;;5032994;28;20109;-66
2023/04/03 08:28:06;;;;;;;14.45;8.98;;;29.60;99.90;;;;;;5032999;28;20471;-66
2023/04/03 08:30:33;;;;;;;14.63;10.02;;;29.50;99.90;;;;;;5032787;28;20033;-66
2023/04/03 08:33:02;;;;;;;16.20;9.55;;;29.60;99.90;;;;;;5032831;28;20021;-65
2023/04/03 08:35:29;;;;;;;15.18;8.85;;;29.60;99.90;;;;;;5032914;28;20557;-66
2023/04/03 08:37:56;;;;;;;12.35;8.77;;;29.70;99.90;;;;;;5032967;28;20029;-68
2023/04/03 08:40:23;;;;;;;14.73;9.65;;;29.70;99.90;;;;;;5032801;28;20037;-69
2023/04/03 08:43:09;;;;;;;20.42;12.38;;;29.80;99.90;;;;;;5032936;28;20032;-69
2023/04/03 08:45:50;;;;;;;18.85;9.95;;;29.80;99.90;;;;;;5032707;28;20072;-68
2023/04/03 08:48:22;;;;;;;15.75;9.52;;;29.80;99.90;;;;;;5032677;28;20116;-68
2023/04/03 08:50:53;;;;;;;19.17;10.57;;;29.70;99.90;;;;;;5036433;28;20033;-69
2023/04/03 08:53:28;;;;;;;12.88;9.60;;;29.80;99.90;;;;;;5036567;28;20472;-68
2023/04/03 08:55:56;;;;;;;12.20;9.38;;;29.80;99.90;;;;;;5034792;28;20025;-68
2023/04/03 08:58:25;;;;;;;19.55;13.20;;;29.80;99.90;;;;;;5034306;28;20025;-68
2023/04/03 09:01:01;;;;;;;15.77;11.50;;;29.90;99.90;;;;;;5034483;28;20495;-68
2023/04/03 09:03:32;;;;;;;15.60;11.18;;;29.90;99.90;;;;;;5034386;28;20034;-68
2023/04/03 09:06:18;;;;;;;11.15;9.38;;;29.90;99.90;;;;;;5025965;28;20030;-68
2023/04/03 09:08:45;;;;;;;11.77;9.27;;;29.90;99.90;;;;;;5014797;28;20080;-70
2023/04/03 09:11:17;;;;;;;13.20;9.43;;;29.90;99.90;;;;;;5025008;28;20213;-68
2023/04/03 09:13:53;;;;;;;14.00;10.23;;;29.80;99.90;;;;;;5016334;28;20054;-67
2023/04/03 09:16:36;;;;;;;15.52;11.65;;;29.80;99.90;;;;;;5030570;28;20048;-68
2023/04/03 09:19:14;;;;;;;51.13;45.67;;;29.80;99.90;;;;;;5042259;28;20025;-67
2023/04/03 09:21:42;;;;;;;17.02;13.50;;;29.80;99.90;;;;;;5044421;28;20045;-68
2023/04/03 09:24:12;;;;;;;19.40;12.30;;;29.80;99.90;;;;;;5051380;28;20033;-68
2023/04/03 09:26:45;;;;;;;14.13;10.63;;;29.70;99.90;;;;;;5053016;28;20017;-68
2023/04/03 09:29:18;;;;;;;13.52;9.90;;;29.70;99.90;;;;;;5043872;28;20025;-67
2023/04/03 09:31:46;;;;;;;15.95;9.65;;;29.70;99.90;;;;;;5044009;28;20565;-68
2023/04/03 09:34:27;;;;;;;15.82;11.35;;;29.70;99.90;;;;;;5042068;28;20469;-69
2023/04/03 09:36:56;;;;;;;19.95;10.98;;;29.70;99.90;;;;;;5042680;28;20488;-68
2023/04/03 09:39:28;;;;;;;17.77;10.13;;;29.80;99.90;;;;;;5044643;28;20029;-68
2023/04/03 09:42:03;;;;;;;17.85;11.63;;;29.80;99.90;;;;;;5042513;28;20028;-69
2023/04/03 09:44:40;;;;;;;18.15;10.85;;;29.80;99.90;;;;;;5049976;28;20025;-69
2023/04/03 09:47:24;;;;;;;17.10;10.70;;;29.80;99.90;;;;;;5047486;28;20021;-69
2023/04/03 09:49:51;;;;;;;18.15;10.38;;;29.90;99.90;;;;;;5045279;28;20051;-67
2023/04/03 09:52:28;;;;;;;18.67;11.43;;;29.80;99.90;;;;;;5044708;28;20013;-68
2023/04/03 09:55:07;;;;;;;18.73;11.13;;;29.80;99.90;;;;;;5043976;28;20022;-67
2023/04/03 09:57:34;;;;;;;17.10;13.43;;;29.80;99.90;;;;;;5044431;28;20036;-69
2023/04/03 10:00:04;;;;;;;15.90;11.05;;;29.70;99.90;;;;;;5045444;28;20357;-68
2023/04/03 10:02:37;;;;;;;16.92;11.07;;;29.70;99.90;;;;;;5044686;28;20022;-68
2023/04/03 10:05:25;;;;;;;14.25;10.85;;;29.60;99.90;;;;;;5041636;28;20014;-67
2023/04/03 10:07:51;;;;;;;20.15;16.05;;;29.60;99.90;;;;;;5043319;28;20026;-68
2023/04/03 10:10:23;;;;;;;23.08;16.05;;;29.60;99.90;;;;;;5043843;28;20029;-68
2023/04/03 10:13:03;;;;;;;;;;;29.70;99.90;;;;;;5041381;28;20039;-68
2023/04/03 10:15:36;;;;;;;28.85;18.13;;;29.70;99.90;;;;;;5043422;28;19970;-69
2023/04/03 10:18:10;;;;;;;31.00;20.90;;;29.70;99.90;;;;;;5043239;28;20052;-68
2023/04/03 10:20:43;;;;;;;37.42;21.38;;;29.80;99.90;;;;;;5042671;28;20017;-68
2023/04/03 10:23:20;;;;;;;18.67;11.77;;;29.80;99.90;;;;;;5040823;28;20022;-70
2023/04/03 10:26:07;;;;;;;15.43;9.90;;;29.80;99.90;;;;;;5043047;28;20018;-69
2023/04/03 10:28:36;;;;;;;16.63;10.05;;;29.60;99.90;;;;;;5040086;28;20428;-69
2023/04/03 10:31:16;;;;;;;13.10;10.18;;;29.60;99.90;;;;;;5043084;28;20021;-70
2023/04/03 10:33:54;;;;;;;15.82;9.98;;;29.60;99.90;;;;;;5044195;28;20025;-69
2023/04/03 10:36:51;;;;;;;13.07;8.68;;;29.60;99.90;;;;;;5043403;28;20036;-69
2023/04/03 10:39:31;;;;;;;20.42;11.77;;;29.60;99.90;;;;;;5042015;28;20047;-69
2023/04/03 10:42:17;;;;;;;20.10;13.73;;;29.60;99.90;;;;;;5042320;28;20047;-68
2023/04/03 10:44:54;;;;;;;23.23;15.43;;;29.60;99.90;;;;;;5043994;28;20252;-69
2023/04/03 10:47:32;;;;;;;35.97;19.77;;;29.60;99.90;;;;;;5043071;28;20017;-68
2023/04/03 10:50:12;;;;;;;20.55;11.93;;;29.50;99.90;;;;;;5042389;28;20045;-70
2023/04/03 10:52:46;;;;;;;24.35;15.70;;;29.50;99.90;;;;;;5042239;28;20043;-70
2023/04/03 10:55:13;;;;;;;34.25;20.30;;;29.50;99.90;;;;;;5040501;28;20021;-70
2023/04/03 10:57:41;;;;;;;58.42;29.05;;;29.40;99.90;;;;;;5042773;28;20025;-68
2023/04/03 11:00:36;;;;;;;53.03;28.80;;;29.40;99.90;;;;;;5043940;28;20467;-68
2023/04/03 11:03:12;;;;;;;45.33;25.27;;;29.30;99.90;;;;;;5010377;28;20072;-69
2023/04/03 11:05:50;;;;;;;47.58;26.35;;;29.30;99.90;;;;;;5033750;28;20545;-69
2023/04/03 11:08:19;;;;;;;32.80;22.00;;;29.30;99.90;;;;;;5034097;28;20100;-68
2023/04/03 11:10:49;;;;;;;29.67;18.65;;;29.30;99.90;;;;;;5031560;28;20032;-68
2023/04/03 11:13:42;;;;;;;33.95;20.05;;;29.30;99.90;;;;;;5030940;28;20030;-68
2023/04/03 11:16:12;;;;;;;23.10;14.30;;;29.30;99.90;;;;;;4990347;28;20042;-70
2023/04/03 11:18:46;;;;;;;17.38;12.65;;;29.30;99.90;;;;;;5020996;28;20029;-69
2023/04/03 11:21:29;;;;;;;25.83;16.67;;;29.30;99.90;;;;;;5028242;28;20477;-70
2023/04/03 11:24:00;;;;;;;25.80;15.35;;;29.30;99.90;;;;;;5029823;28;20036;-69
2023/04/03 11:26:32;;;;;;;26.40;15.90;;;29.20;99.90;;;;;;5030412;28;20025;-69
2023/04/03 11:29:05;;;;;;;29.63;15.77;;;29.20;99.90;;;;;;5013956;28;20030;-72
2023/04/03 11:31:37;;;;;;;27.52;14.55;;;29.20;99.90;;;;;;5024774;28;20065;-69
2023/04/03 11:34:24;;;;;;;25.05;15.25;;;29.10;99.90;;;;;;5022523;28;20041;-70
2023/04/03 11:36:56;;;;;;;27.25;16.35;;;29.10;99.90;;;;;;5030783;28;20549;-70
2023/04/03 11:39:25;;;;;;;;;;;29.10;99.90;;;;;;5043968;28;20024;-71
2023/04/03 11:41:52;;;;;;;38.75;25.35;;;29.20;99.90;;;;;;5042648;28;19927;-69
2023/04/03 11:44:39;;;;;;;47.33;27.02;;;29.20;99.90;;;;;;5044940;28;20021;-70
2023/04/03 11:47:08;;;;;;;49.30;27.88;;;29.10;99.90;;;;;;5013844;28;20029;-70
2023/04/03 11:50:04;;;;;;;44.13;23.83;;;29.10;99.90;;;;;;5040447;28;20110;-70
2023/04/03 11:52:39;;;;;;;49.63;24.10;;;29.10;99.90;;;;;;5043733;28;20033;-70
2023/04/03 11:55:22;;;;;;;43.75;22.42;;;29.10;99.90;;;;;;5041010;28;20152;-68
2023/04/03 11:57:58;;;;;;;43.50;24.80;;;29.10;99.90;;;;;;5037142;28;20461;-70
2023/04/03 12:00:47;;;;;;;41.42;25.15;;;29.10;99.90;;;;;;5042084;28;20407;-69
2023/04/03 12:03:31;;;;;;;44.78;24.75;;;29.00;99.90;;;;;;5034537;28;20017;-69
2023/04/03 12:06:07;;;;;;;42.97;24.30;;;29.00;99.90;;;;;;5043696;28;20028;-68
2023/04/03 12:08:33;;;;;;;45.53;24.98;;;29.10;99.90;;;;;;5050947;28;20071;-69
2023/04/03 12:11:09;;;;;;;46.60;26.77;;;29.10;99.90;;;;;;5049758;28;20071;-70
2023/04/03 12:13:36;;;;;;;40.00;24.45;;;29.10;99.90;;;;;;5039987;28;20025;-68
2023/04/03 12:16:05;;;;;;;41.60;25.40;;;29.10;99.90;;;;;;5108692;23;20076;-67
2023/04/03 12:18:42;;;;;;;39.75;25.10;;;29.10;99.90;;;;;;5110688;28;20124;-69
2023/04/03 12:21:11;;;;;;;39.17;27.00;;;29.10;99.90;;;;;;5094038;28;20035;-69
2023/04/03 12:23:58;;;;;;;45.40;30.60;;;29.10;99.90;;;;;;5092301;28;20012;-68
2023/04/03 12:26:45;;;;;;;49.90;32.65;;;29.00;99.90;;;;;;5107687;28;20098;-69
2023/04/03 12:29:24;;;;;;;49.05;32.58;;;29.00;99.90;;;;;;5117071;28;20469;-71
2023/04/03 12:32:04;;;;;;;45.63;34.10;;;28.90;99.90;;;;;;5113393;28;20031;-71
2023/04/03 12:34:32;;;;;;;50.38;34.95;;;28.90;99.90;;;;;;5098055;28;20185;-69
2023/04/03 12:37:09;;;;;;;47.67;33.03;;;28.90;99.90;;;;;;5095968;28;20374;-70
2023/04/03 12:39:46;;;;;;;49.80;33.83;;;28.90;99.90;;;;;;5095403;28;20016;-68
2023/04/03 12:42:21;;;;;;;47.95;32.35;;;28.90;99.90;;;;;;5107169;28;20019;-67